Time;durP1;ratioP1;P1;durP2;ratioP2;P2;SDS_P1;SDS_P2;PMS_P1;PMS_P2;Temp;Humidity;BMP_temperature;BMP_pressure;BME280_temperature;BME280_humidity;BME280_pressure;Samples;Min_cycle;Max_cycle;Signal;HPM_P1;HPM_P2
2021/05/29 00:02:07;;;;;;;2.33;1.90;;;15.00;99.90;;;;;;4994389;28;20184;-52
2021/05/29 00:04:33;;;;;;;2.60;2.40;;;15.00;99.90;;;;;;4993482;28;20175;-50
2021/05/29 00:06:58;;;;;;;2.80;1.80;;;15.00;99.90;;;;;;4994036;28;20578;-52
2021/05/29 00:09:24;;;;;;;1.80;1.70;;;15.00;99.90;;;;;;4993960;28;20521;-54
2021/05/29 00:11:49;;;;;;;2.40;2.10;;;15.00;99.90;;;;;;4995104;28;20250;-50
2021/05/29 00:14:15;;;;;;;2.30;2.10;;;14.90;99.90;;;;;;4994197;28;20190;-51
2021/05/29 00:16:42;;;;;;;2.40;1.83;;;15.00;99.90;;;;;;4994325;28;20218;-51
2021/05/29 00:19:08;;;;;;;2.63;1.90;;;15.10;99.90;;;;;;4997456;28;20172;-50
2021/05/29 00:21:33;;;;;;;2.57;2.37;;;15.10;99.90;;;;;;4998313;28;20419;-50
2021/05/29 00:23:59;;;;;;;3.17;2.87;;;15.10;99.90;;;;;;4998658;28;20186;-51
2021/05/29 00:26:25;;;;;;;2.70;2.50;;;14.90;99.90;;;;;;4997687;28;20234;-51
2021/05/29 00:28:51;;;;;;;3.43;2.67;;;14.90;99.90;;;;;;4997740;28;20164;-51
2021/05/29 00:31:18;;;;;;;2.33;2.13;;;14.90;99.90;;;;;;4997740;28;20219;-51
2021/05/29 00:33:43;;;;;;;3.13;2.20;;;14.90;99.90;;;;;;4997494;28;20399;-52
2021/05/29 00:36:09;;;;;;;2.43;2.23;;;14.80;99.90;;;;;;4997773;28;20429;-51
2021/05/29 00:38:35;;;;;;;1.97;1.80;;;14.80;99.90;;;;;;4997973;28;20171;-52
2021/05/29 00:41:07;;;;;;;9.50;2.40;;;14.80;99.90;;;;;;4998457;28;20252;-50
2021/05/29 00:43:35;;;;;;;3.70;2.30;;;14.80;99.90;;;;;;4998719;28;20184;-50
2021/05/29 00:46:00;;;;;;;2.60;2.20;;;14.80;99.90;;;;;;4998586;28;20458;-50
2021/05/29 00:48:26;;;;;;;3.03;2.03;;;14.80;99.90;;;;;;4997498;28;20463;-52
2021/05/29 00:50:59;;;;;;;2.03;1.93;;;14.70;99.90;;;;;;4997242;28;20247;-50
2021/05/29 00:53:28;;;;;;;2.80;1.90;;;14.80;99.90;;;;;;4997834;28;20160;-51
2021/05/29 00:55:55;;;;;;;4.03;2.00;;;14.90;99.90;;;;;;4996900;28;20466;-50
2021/05/29 00:58:23;;;;;;;1.80;1.70;;;14.80;99.90;;;;;;4997736;28;20442;-50
2021/05/29 01:00:49;;;;;;;4.33;2.10;;;14.80;99.90;;;;;;4997433;28;20412;-50
2021/05/29 01:03:15;;;;;;;2.60;2.40;;;14.80;99.90;;;;;;4996821;28;20446;-49
2021/05/29 01:05:43;;;;;;;2.40;2.20;;;14.90;99.90;;;;;;4997099;28;20491;-50
2021/05/29 01:08:09;;;;;;;2.23;2.03;;;14.80;99.90;;;;;;4997368;28;20923;-50
2021/05/29 01:10:35;;;;;;;3.00;2.30;;;14.80;99.90;;;;;;4997181;28;20408;-50
2021/05/29 01:13:04;;;;;;;2.23;1.80;;;14.70;99.90;;;;;;4996959;28;20412;-51
2021/05/29 01:15:45;;;;;;;1.80;1.70;;;14.60;99.90;;;;;;4997002;28;20398;-50
2021/05/29 01:18:14;;;;;;;2.27;1.97;;;14.50;99.90;;;;;;4996005;28;20424;-50
2021/05/29 01:20:40;;;;;;;1.63;1.50;;;14.50;99.90;;;;;;4996986;28;20456;-51
2021/05/29 01:23:07;;;;;;;3.40;2.00;;;14.60;99.90;;;;;;4997390;28;20402;-51
2021/05/29 01:25:37;;;;;;;3.10;2.03;;;14.60;99.90;;;;;;4996306;28;20831;-51
2021/05/29 01:28:12;;;;;;;1.90;1.63;;;14.50;99.90;;;;;;4996002;28;20496;-53
2021/05/29 01:30:46;;;;;;;4.03;2.00;;;14.30;99.90;;;;;;4995640;28;20913;-53
2021/05/29 01:33:17;;;;;;;2.40;1.97;;;14.30;99.90;;;;;;4995684;28;20765;-50
2021/05/29 01:35:44;;;;;;;2.40;2.20;;;14.40;99.90;;;;;;4996591;28;20458;-50
2021/05/29 01:38:15;;;;;;;2.70;1.90;;;14.30;99.90;;;;;;4996822;28;20480;-50
2021/05/29 01:40:40;;;;;;;3.73;2.47;;;14.40;99.90;;;;;;4996484;28;20993;-50
2021/05/29 01:43:11;;;;;;;2.20;2.10;;;14.30;99.90;;;;;;4997997;28;20483;-53
2021/05/29 01:48:12;;;;;;;2.37;2.17;;;14.00;99.90;;;;;;5031682;28;20470;-57
2021/05/29 01:50:46;;;;;;;4.53;2.23;;;13.90;99.90;;;;;;5015850;28;20772;-56
2021/05/29 01:53:14;;;;;;;2.47;2.27;;;14.00;99.90;;;;;;5015156;28;20394;-57
2021/05/29 01:55:41;;;;;;;2.60;2.40;;;14.10;99.90;;;;;;5015755;28;20744;-57
2021/05/29 01:58:07;;;;;;;2.20;2.00;;;14.10;99.90;;;;;;5015522;28;20909;-55
2021/05/29 02:00:33;;;;;;;2.90;2.50;;;14.20;99.90;;;;;;5015621;28;20398;-56
2021/05/29 02:02:59;;;;;;;2.93;2.30;;;14.20;99.90;;;;;;5015070;28;20393;-56
2021/05/29 02:05:28;;;;;;;2.30;2.10;;;14.20;99.90;;;;;;5015244;28;20205;-55
2021/05/29 02:07:57;;;;;;;2.73;2.53;;;14.00;99.90;;;;;;5015138;28;20311;-54
2021/05/29 02:10:25;;;;;;;3.50;2.50;;;14.00;99.90;;;;;;5015034;28;20755;-54
2021/05/29 02:12:56;;;;;;;3.27;2.97;;;14.10;99.90;;;;;;5014867;28;20397;-52
2021/05/29 02:15:28;;;;;;;2.50;2.37;;;14.10;99.90;;;;;;5014925;28;20459;-56
2021/05/29 02:17:56;;;;;;;3.00;2.80;;;14.00;99.90;;;;;;5029544;28;20440;-53
2021/05/29 02:20:40;;;;;;;2.63;2.20;;;14.00;99.90;;;;;;5035059;28;20404;-56
2021/05/29 02:23:07;;;;;;;4.50;3.30;;;13.80;99.90;;;;;;5033627;28;20425;-55
2021/05/29 02:25:33;;;;;;;2.83;2.63;;;13.70;99.90;;;;;;5034596;28;20412;-56
2021/05/29 02:27:59;;;;;;;4.17;2.97;;;13.70;99.90;;;;;;5034161;28;20430;-53
2021/05/29 02:30:25;;;;;;;3.63;3.07;;;13.70;99.90;;;;;;5034792;28;20432;-56
2021/05/29 02:32:51;;;;;;;5.37;3.60;;;13.70;99.90;;;;;;5034480;28;20740;-56
2021/05/29 02:35:17;;;;;;;3.40;3.10;;;13.70;99.90;;;;;;5033309;28;20414;-56
2021/05/29 02:37:43;;;;;;;3.10;2.90;;;13.70;99.90;;;;;;5034449;28;20451;-52
2021/05/29 02:40:10;;;;;;;3.17;2.87;;;13.70;99.90;;;;;;5034280;28;20177;-54
2021/05/29 02:42:36;;;;;;;3.33;3.03;;;13.80;99.90;;;;;;5034287;28;20446;-54
2021/05/29 02:45:02;;;;;;;3.17;2.87;;;13.80;99.90;;;;;;5034582;28;20446;-56
2021/05/29 02:47:28;;;;;;;4.27;3.20;;;13.80;99.90;;;;;;5032585;28;20206;-56
2021/05/29 02:49:53;;;;;;;3.57;3.27;;;13.70;99.90;;;;;;5034214;28;20404;-56
2021/05/29 02:52:19;;;;;;;3.93;3.60;;;13.60;99.90;;;;;;5034145;28;20250;-55
2021/05/29 02:54:44;;;;;;;3.97;3.40;;;13.50;99.90;;;;;;5034071;28;20217;-56
2021/05/29 02:57:10;;;;;;;4.23;3.60;;;13.40;99.90;;;;;;5034571;28;20188;-56
2021/05/29 02:59:36;;;;;;;3.13;2.83;;;13.30;99.90;;;;;;5034318;28;20167;-55
2021/05/29 03:02:04;;;;;;;3.40;3.10;;;13.30;99.90;;;;;;5034496;28;20902;-50
2021/05/29 03:04:30;;;;;;;5.03;3.60;;;13.30;99.90;;;;;;5032807;28;20422;-55
2021/05/29 03:06:56;;;;;;;3.77;3.47;;;13.20;99.90;;;;;;5033756;28;20545;-55
2021/05/29 03:09:21;;;;;;;5.10;3.77;;;13.20;99.90;;;;;;5034019;28;20182;-56
2021/05/29 03:11:47;;;;;;;3.40;3.10;;;13.20;99.90;;;;;;5034063;28;20175;-56
2021/05/29 03:14:12;;;;;;;3.50;3.20;;;13.30;99.90;;;;;;5034170;28;20191;-56
2021/05/29 03:16:38;;;;;;;4.67;3.60;;;13.10;99.90;;;;;;5033659;28;20192;-56
2021/05/29 03:19:04;;;;;;;3.63;2.90;;;13.00;99.90;;;;;;5032950;28;20175;-54
2021/05/29 03:21:29;;;;;;;4.50;3.33;;;13.00;99.90;;;;;;5033176;28;20164;-56
2021/05/29 03:23:55;;;;;;;4.10;3.80;;;13.00;99.90;;;;;;5033263;28;20171;-56
2021/05/29 03:26:23;;;;;;;4.13;3.10;;;12.80;99.90;;;;;;5033465;28;20315;-56
2021/05/29 03:28:48;;;;;;;3.30;2.67;;;12.60;99.90;;;;;;5033855;28;20397;-55
2021/05/29 03:31:14;;;;;;;3.23;2.93;;;12.60;99.90;;;;;;5033431;28;20929;-56
2021/05/29 03:33:39;;;;;;;3.23;2.93;;;12.70;99.90;;;;;;5032923;28;20167;-55
2021/05/29 03:36:05;;;;;;;3.43;3.13;;;12.80;99.90;;;;;;5033270;28;20191;-56
2021/05/29 03:38:31;;;;;;;4.83;3.27;;;12.80;99.90;;;;;;5033441;28;20202;-57
2021/05/29 03:40:56;;;;;;;4.53;3.17;;;12.90;99.90;;;;;;5033275;28;20167;-53
2021/05/29 03:43:22;;;;;;;4.03;3.10;;;12.80;99.90;;;;;;5032551;28;20271;-57
2021/05/29 03:45:47;;;;;;;3.27;2.97;;;12.80;99.90;;;;;;5024143;28;20563;-55
2021/05/29 03:48:13;;;;;;;5.30;3.17;;;12.80;99.90;;;;;;4995588;28;20670;-56
2021/05/29 03:50:39;;;;;;;3.67;3.27;;;12.80;99.90;;;;;;5024187;28;20262;-57
2021/05/29 03:53:08;;;;;;;3.60;3.30;;;12.80;99.90;;;;;;5032920;28;20228;-56
2021/05/29 03:55:34;;;;;;;3.50;3.27;;;12.90;99.90;;;;;;5033147;28;20176;-57
2021/05/29 03:58:01;;;;;;;3.37;3.07;;;12.90;99.90;;;;;;5033051;28;20417;-56
2021/05/29 04:00:27;;;;;;;3.57;3.27;;;13.00;99.90;;;;;;5033043;28;20405;-56
2021/05/29 04:02:53;;;;;;;3.10;2.90;;;13.10;99.90;;;;;;5033318;28;20529;-56
2021/05/29 04:05:20;;;;;;;4.30;3.90;;;13.10;99.90;;;;;;5033516;28;20473;-57
2021/05/29 04:07:47;;;;;;;4.40;3.50;;;13.20;99.90;;;;;;5032452;28;20209;-55
2021/05/29 04:10:15;;;;;;;4.53;3.77;;;13.20;99.90;;;;;;5033200;28;20402;-56
2021/05/29 04:12:42;;;;;;;4.93;3.57;;;13.20;99.90;;;;;;5032925;28;20413;-54
2021/05/29 04:15:10;;;;;;;4.20;3.90;;;13.20;99.90;;;;;;5032120;28;20414;-52
2021/05/29 04:17:36;;;;;;;4.73;4.33;;;13.20;99.90;;;;;;5032839;28;20425;-56
2021/05/29 04:20:02;;;;;;;5.37;4.87;;;13.20;99.90;;;;;;5032726;28;20407;-55
2021/05/29 04:22:28;;;;;;;4.93;4.50;;;13.20;99.90;;;;;;5031516;28;20398;-50
2021/05/29 04:24:53;;;;;;;5.43;4.90;;;13.20;99.90;;;;;;5033163;28;20438;-55
2021/05/29 04:27:19;;;;;;;5.23;4.73;;;13.10;99.90;;;;;;5032754;28;20199;-54
2021/05/29 04:29:45;;;;;;;5.47;4.70;;;13.20;99.90;;;;;;5031714;28;20213;-56
2021/05/29 04:32:11;;;;;;;4.80;4.40;;;13.30;99.90;;;;;;5032806;28;20213;-54
2021/05/29 04:34:37;;;;;;;5.03;4.33;;;13.40;99.90;;;;;;5032439;28;20398;-54
2021/05/29 04:37:04;;;;;;;6.53;5.33;;;13.50;99.90;;;;;;5032135;28;20190;-54
2021/05/29 04:39:30;;;;;;;4.80;4.40;;;13.40;99.90;;;;;;5031539;28;20179;-56
2021/05/29 04:41:55;;;;;;;5.07;4.63;;;13.40;99.90;;;;;;5030375;28;20454;-55
2021/05/29 04:44:21;;;;;;;4.10;3.80;;;13.40;99.90;;;;;;5033068;28;20208;-55
2021/05/29 04:46:53;;;;;;;5.93;4.27;;;13.50;99.90;;;;;;5014482;28;20622;-56
2021/05/29 04:49:20;;;;;;;5.00;4.60;;;13.50;99.90;;;;;;5032583;28;20530;-54
2021/05/29 04:51:46;;;;;;;7.03;4.90;;;13.50;99.90;;;;;;5031588;28;20495;-56
2021/05/29 04:54:13;;;;;;;5.00;4.40;;;13.60;99.90;;;;;;5032257;28;20394;-56
2021/05/29 04:56:39;;;;;;;4.87;4.37;;;13.60;99.90;;;;;;5031898;28;20472;-52
2021/05/29 04:59:05;;;;;;;5.50;5.00;;;13.60;99.90;;;;;;5031037;28;20757;-56
2021/05/29 05:01:32;;;;;;;5.40;4.90;;;13.60;99.90;;;;;;5032668;28;20402;-56
2021/05/29 05:03:59;;;;;;;4.33;3.93;;;13.70;99.90;;;;;;5032435;28;20418;-52
2021/05/29 05:06:25;;;;;;;5.10;4.70;;;13.80;99.90;;;;;;5017821;28;20454;-52
2021/05/29 05:08:51;;;;;;;4.50;4.10;;;13.80;99.90;;;;;;5036014;28;20409;-54
2021/05/29 05:11:17;;;;;;;11.60;9.27;;;13.70;99.90;;;;;;5037193;28;20176;-56
2021/05/29 05:13:42;;;;;;;5.33;4.83;;;13.80;99.90;;;;;;5034885;28;20176;-55
2021/05/29 05:16:08;;;;;;;5.63;5.23;;;13.80;99.90;;;;;;5035509;28;20715;-54
2021/05/29 05:18:34;;;;;;;5.50;5.00;;;13.90;99.90;;;;;;5035541;28;20290;-54
2021/05/29 05:21:00;;;;;;;4.37;4.07;;;14.00;99.90;;;;;;5034637;28;20254;-54
2021/05/29 05:23:25;;;;;;;4.20;3.90;;;14.20;99.90;;;;;;5035424;28;20440;-56
2021/05/29 05:25:53;;;;;;;4.90;4.50;;;14.30;99.90;;;;;;5035524;28;20320;-54
2021/05/29 05:28:28;;;;;;;5.00;4.60;;;14.40;99.90;;;;;;5035060;28;20174;-56
2021/05/29 05:31:02;;;;;;;5.23;4.73;;;14.60;99.90;;;;;;5035544;28;20411;-56
2021/05/29 05:33:28;;;;;;;4.63;4.27;;;14.70;99.90;;;;;;5035894;28;20388;-56
2021/05/29 05:35:54;;;;;;;4.43;4.13;;;14.80;99.90;;;;;;5035337;28;20970;-56
2021/05/29 05:38:20;;;;;;;5.50;4.40;;;15.00;99.90;;;;;;5035862;28;20419;-54
2021/05/29 05:40:46;;;;;;;4.20;3.67;;;15.10;99.90;;;;;;5035739;28;20688;-55
2021/05/29 05:43:12;;;;;;;3.73;3.43;;;15.20;99.90;;;;;;5034029;28;20429;-53
2021/05/29 05:45:38;;;;;;;4.87;4.47;;;15.30;99.90;;;;;;5035285;28;20177;-52
2021/05/29 05:48:05;;;;;;;4.60;4.20;;;15.40;99.90;;;;;;5021643;28;20204;-51
2021/05/29 05:50:31;;;;;;;6.40;5.07;;;15.20;99.90;;;;;;5035541;28;20418;-52
2021/05/29 05:52:57;;;;;;;4.93;4.53;;;15.20;99.90;;;;;;5035235;28;20414;-56
2021/05/29 05:55:23;;;;;;;5.13;4.63;;;15.30;99.90;;;;;;5034993;28;20401;-54
2021/05/29 05:57:49;;;;;;;4.23;3.83;;;15.40;99.90;;;;;;5035043;28;20204;-55
2021/05/29 06:00:20;;;;;;;5.47;4.27;;;15.40;99.90;;;;;;5035607;28;20179;-55
2021/05/29 06:02:46;;;;;;;4.40;3.70;;;15.50;99.90;;;;;;5035592;28;20384;-56
2021/05/29 06:05:15;;;;;;;4.47;4.07;;;15.50;99.90;;;;;;5017258;28;20425;-57
2021/05/29 06:07:42;;;;;;;5.40;4.90;;;15.60;99.90;;;;;;5034980;28;20474;-53
2021/05/29 06:10:08;;;;;;;5.03;4.07;;;15.60;99.90;;;;;;5034238;28;20810;-54
2021/05/29 06:12:37;;;;;;;4.50;4.10;;;15.60;99.90;;;;;;5034697;28;20429;-56
2021/05/29 06:18:06;;;;;;;4.47;4.07;;;15.70;99.90;;;;;;5033582;28;20504;-56
2021/05/29 06:20:32;;;;;;;5.37;4.90;;;15.80;99.90;;;;;;5034077;28;20782;-56
2021/05/29 06:22:58;;;;;;;4.43;3.87;;;15.90;99.90;;;;;;5034429;28;20429;-56
2021/05/29 06:25:23;;;;;;;3.67;3.37;;;16.00;99.90;;;;;;5033746;28;20484;-55
2021/05/29 06:27:49;;;;;;;3.57;3.27;;;16.00;99.90;;;;;;5034601;28;20212;-56
2021/05/29 06:30:15;;;;;;;5.17;3.57;;;16.10;99.90;;;;;;5034482;28;20249;-55
2021/05/29 06:32:41;;;;;;;3.60;3.40;;;16.20;99.90;;;;;;5033355;28;20174;-54
2021/05/29 06:35:08;;;;;;;6.30;3.70;;;16.30;99.90;;;;;;5034174;28;20415;-57
2021/05/29 06:37:35;;;;;;;3.63;3.33;;;16.20;99.90;;;;;;5034305;28;20201;-53
2021/05/29 06:40:03;;;;;;;5.10;3.93;;;16.30;99.90;;;;;;5016438;28;20443;-55
2021/05/29 06:42:28;;;;;;;4.37;3.60;;;16.40;99.90;;;;;;5034567;28;20416;-52
2021/05/29 06:44:54;;;;;;;5.17;4.23;;;16.40;99.90;;;;;;5034211;28;20755;-56
2021/05/29 06:47:19;;;;;;;3.27;3.00;;;16.60;99.90;;;;;;5032816;28;20268;-54
2021/05/29 06:49:45;;;;;;;3.80;3.40;;;16.30;99.90;;;;;;5033923;28;20210;-56
2021/05/29 06:52:14;;;;;;;3.37;3.10;;;16.10;99.90;;;;;;5027234;28;20170;-54
2021/05/29 06:59:50;;;;;;;3.40;3.20;;;16.50;99.90;;;;;;5034555;28;20901;-55
2021/05/29 07:02:16;;;;;;;4.60;2.97;;;16.80;99.90;;;;;;5014514;28;20421;-55
2021/05/29 07:04:41;;;;;;;3.77;3.17;;;17.10;99.90;;;;;;5024670;28;20207;-55
2021/05/29 07:07:07;;;;;;;3.33;2.70;;;16.90;99.90;;;;;;5033370;28;20218;-56
2021/05/29 07:09:33;;;;;;;3.30;2.80;;;16.90;99.90;;;;;;5034274;28;20199;-57
2021/05/29 07:11:59;;;;;;;3.53;2.50;;;16.90;99.90;;;;;;5034040;28;20177;-56
2021/05/29 07:14:24;;;;;;;3.00;2.73;;;16.70;99.30;;;;;;5033871;28;20803;-57
2021/05/29 07:16:53;;;;;;;3.50;2.47;;;16.70;99.50;;;;;;5033578;28;20325;-57
2021/05/29 07:19:23;;;;;;;2.50;2.30;;;16.80;99.00;;;;;;5033725;28;20182;-57
2021/05/29 07:21:50;;;;;;;5.83;2.83;;;16.50;99.40;;;;;;5033339;28;20889;-56
2021/05/29 07:24:17;;;;;;;3.00;2.80;;;16.30;99.40;;;;;;5033496;28;20501;-57
2021/05/29 07:26:43;;;;;;;2.67;2.17;;;16.60;99.50;;;;;;5032198;28;20551;-54
2021/05/29 07:29:09;;;;;;;4.47;3.23;;;16.90;99.40;;;;;;5015526;28;20450;-51
2021/05/29 07:31:35;;;;;;;2.73;2.40;;;17.00;99.00;;;;;;5016290;28;20453;-55
2021/05/29 07:34:01;;;;;;;2.67;2.47;;;16.90;99.00;;;;;;5026884;28;20262;-56
2021/05/29 07:36:26;;;;;;;3.33;2.90;;;17.10;98.30;;;;;;5025951;28;20207;-55
2021/05/29 07:38:52;;;;;;;3.20;2.87;;;16.90;98.40;;;;;;5013395;28;20179;-56
2021/05/29 07:41:18;;;;;;;2.67;2.47;;;16.80;98.50;;;;;;5016339;28;20185;-56
2021/05/29 07:43:44;;;;;;;2.57;2.13;;;16.70;98.00;;;;;;5028013;28;20205;-50
2021/05/29 07:48:43;;;;;;;6.30;2.13;;;17.20;97.90;;;;;;5029842;28;20238;-56
2021/05/29 07:51:09;;;;;;;2.67;2.40;;;17.30;97.60;;;;;;5033552;28;20806;-54
2021/05/29 07:53:40;;;;;;;4.27;2.20;;;17.40;97.30;;;;;;5033359;28;20174;-58
2021/05/29 07:56:08;;;;;;;4.37;2.50;;;17.60;96.60;;;;;;5033689;28;20410;-58
2021/05/29 07:58:35;;;;;;;3.67;2.27;;;17.60;96.60;;;;;;5032854;28;20437;-58
2021/05/29 08:01:01;;;;;;;3.10;2.63;;;17.30;96.30;;;;;;5033112;28;20401;-58
2021/05/29 08:03:29;;;;;;;2.77;1.90;;;17.40;96.20;;;;;;5022434;28;20505;-59
2021/05/29 08:05:55;;;;;;;3.10;2.17;;;17.30;95.80;;;;;;5017312;28;20526;-59
2021/05/29 08:08:22;;;;;;;2.67;2.40;;;17.40;96.00;;;;;;5033239;28;20434;-59
2021/05/29 08:10:49;;;;;;;2.47;2.00;;;17.40;96.00;;;;;;5033181;28;20527;-56
2021/05/29 08:13:20;;;;;;;1.97;1.77;;;17.50;95.60;;;;;;5032318;28;20425;-57
2021/05/29 08:15:46;;;;;;;2.13;1.93;;;17.60;94.50;;;;;;5033478;28;20799;-56
2021/05/29 08:18:15;;;;;;;2.00;1.80;;;17.70;94.30;;;;;;5033156;28;20895;-57
2021/05/29 08:20:42;;;;;;;2.10;1.90;;;17.80;94.10;;;;;;5033053;28;20401;-56
2021/05/29 08:23:08;;;;;;;2.10;1.90;;;17.70;93.60;;;;;;5033214;28;20437;-55
2021/05/29 08:25:34;;;;;;;1.70;1.60;;;17.70;93.90;;;;;;5032753;28;20410;-55
2021/05/29 08:28:00;;;;;;;2.80;1.60;;;17.80;93.60;;;;;;5032511;28;20198;-54
2021/05/29 08:30:26;;;;;;;2.20;1.43;;;17.90;92.60;;;;;;5033127;28;20398;-56
2021/05/29 08:32:52;;;;;;;2.03;1.70;;;17.90;91.80;;;;;;5032877;28;20498;-54
2021/05/29 08:35:18;;;;;;;2.20;2.00;;;17.90;92.60;;;;;;5033082;28;20426;-56
2021/05/29 08:37:45;;;;;;;2.73;2.30;;;17.90;93.00;;;;;;5032895;28;20426;-56
2021/05/29 08:40:13;;;;;;;1.87;1.77;;;17.90;92.70;;;;;;5036230;28;20167;-55
2021/05/29 08:42:41;;;;;;;2.30;1.90;;;17.90;92.90;;;;;;5037038;28;20771;-56
2021/05/29 08:45:07;;;;;;;2.70;2.40;;;17.80;92.60;;;;;;5036136;28;20475;-55
2021/05/29 08:47:32;;;;;;;3.30;2.40;;;17.80;92.70;;;;;;5035418;28;20997;-57
2021/05/29 08:49:58;;;;;;;2.50;2.30;;;17.90;92.70;;;;;;5017310;28;20474;-59
2021/05/29 08:52:24;;;;;;;2.17;1.97;;;17.80;93.00;;;;;;5028992;28;20651;-58
2021/05/29 08:54:50;;;;;;;2.87;2.27;;;17.90;93.90;;;;;;5036447;28;20171;-58
2021/05/29 08:57:17;;;;;;;2.10;1.90;;;18.10;93.40;;;;;;5036986;28;20228;-56
2021/05/29 08:59:42;;;;;;;2.70;2.50;;;18.30;92.20;;;;;;5036886;28;20429;-58
2021/05/29 09:02:08;;;;;;;2.77;2.57;;;18.40;92.70;;;;;;5036657;28;20409;-58
2021/05/29 09:04:34;;;;;;;2.27;2.07;;;18.50;92.60;;;;;;5036892;28;20645;-58
2021/05/29 09:07:00;;;;;;;2.43;1.73;;;18.40;91.10;;;;;;5036128;28;20210;-59
2021/05/29 09:09:25;;;;;;;1.80;1.63;;;18.30;91.40;;;;;;5036249;28;20247;-58
2021/05/29 09:11:53;;;;;;;1.70;1.60;;;18.20;91.00;;;;;;5035715;28;20174;-59
2021/05/29 09:14:22;;;;;;;2.80;1.70;;;18.40;90.20;;;;;;5036508;28;20175;-59
2021/05/29 09:17:22;;;;;;;1.87;1.73;;;18.30;89.30;;;;;;5037036;28;20418;-59
2021/05/29 09:19:57;;;;;;;1.90;1.80;;;18.20;90.10;;;;;;5036862;28;20417;-57
2021/05/29 09:22:56;;;;;;;3.33;2.03;;;18.20;90.50;;;;;;5036864;28;20389;-58
2021/05/29 09:25:23;;;;;;;2.80;2.00;;;18.30;90.20;;;;;;5032837;28;20413;-57
2021/05/29 09:28:05;;;;;;;2.73;2.17;;;18.30;90.30;;;;;;5036133;28;20462;-59
2021/05/29 09:30:56;;;;;;;2.40;2.20;;;18.30;88.20;;;;;;5034217;28;20922;-58
2021/05/29 09:33:23;;;;;;;2.10;1.70;;;18.30;89.00;;;;;;5036775;28;20433;-58
2021/05/29 09:35:56;;;;;;;2.13;1.93;;;18.30;89.80;;;;;;5036229;28;20406;-58
2021/05/29 09:38:23;;;;;;;2.23;2.03;;;18.50;87.20;;;;;;5035626;28;20797;-60
2021/05/29 09:40:54;;;;;;;2.10;1.77;;;18.60;87.20;;;;;;5037682;28;20398;-58
2021/05/29 09:43:21;;;;;;;2.37;1.57;;;18.80;86.80;;;;;;5035851;28;20402;-58
2021/05/29 09:45:57;;;;;;;2.50;2.30;;;18.90;87.40;;;;;;5035683;28;20402;-57
2021/05/29 09:48:24;;;;;;;2.80;2.50;;;19.30;89.40;;;;;;5034637;28;20580;-57
2021/05/29 09:51:01;;;;;;;8.33;2.53;;;19.10;90.40;;;;;;5035044;28;20402;-60
2021/05/29 09:53:29;;;;;;;2.60;2.40;;;19.10;90.40;;;;;;5035680;28;20894;-57
2021/05/29 09:55:55;;;;;;;4.90;2.27;;;19.00;90.80;;;;;;5035445;28;20929;-59
2021/05/29 09:58:24;;;;;;;2.30;2.10;;;19.00;90.80;;;;;;5035933;28;20430;-60
2021/05/29 10:00:51;;;;;;;2.40;2.20;;;19.30;90.80;;;;;;5035673;28;20207;-59
2021/05/29 10:03:16;;;;;;;3.63;2.47;;;19.50;90.10;;;;;;5035244;28;20410;-59
2021/05/29 10:05:47;;;;;;;3.10;2.27;;;19.70;90.10;;;;;;5035837;28;20416;-58
2021/05/29 10:08:15;;;;;;;3.30;2.23;;;19.80;89.60;;;;;;5035936;28;20656;-60
2021/05/29 10:10:41;;;;;;;2.93;2.70;;;19.80;89.90;;;;;;5035310;28;20465;-59
2021/05/29 10:13:07;;;;;;;2.30;2.10;;;19.70;90.30;;;;;;5035122;28;20402;-59
2021/05/29 10:15:33;;;;;;;3.90;2.23;;;19.90;90.10;;;;;;5035515;28;20398;-59
2021/05/29 10:18:03;;;;;;;2.67;2.47;;;20.30;87.10;;;;;;5035402;28;20241;-59
2021/05/29 10:20:34;;;;;;;2.27;2.10;;;20.10;89.40;;;;;;5034983;28;20186;-59
2021/05/29 10:23:00;;;;;;;2.43;2.23;;;20.10;89.20;;;;;;5035779;28;20386;-58
2021/05/29 10:25:26;;;;;;;3.87;2.10;;;20.20;89.20;;;;;;5035019;28;20401;-58
2021/05/29 10:27:56;;;;;;;2.53;2.23;;;20.20;88.50;;;;;;5034826;28;20238;-59
2021/05/29 10:30:24;;;;;;;2.50;1.97;;;19.80;88.70;;;;;;5035033;28;20406;-57
2021/05/29 10:33:12;;;;;;;4.33;2.10;;;19.80;89.50;;;;;;5035372;28;20402;-59
2021/05/29 10:35:39;;;;;;;2.13;2.03;;;20.10;90.10;;;;;;5015371;28;20411;-59
2021/05/29 10:38:07;;;;;;;2.60;2.13;;;19.90;89.10;;;;;;5015429;28;20441;-57
2021/05/29 10:40:36;;;;;;;2.30;1.80;;;19.90;89.80;;;;;;5014422;28;20425;-56
2021/05/29 10:43:14;;;;;;;2.10;1.90;;;20.10;86.10;;;;;;5015134;28;20815;-59
2021/05/29 10:46:09;;;;;;;1.87;1.77;;;20.40;88.60;;;;;;5015208;28;20407;-59
2021/05/29 10:48:49;;;;;;;1.90;1.70;;;20.70;85.60;;;;;;5014876;28;20450;-56
2021/05/29 10:51:16;;;;;;;2.20;1.87;;;20.60;83.20;;;;;;5015272;28;20399;-55
2021/05/29 10:53:42;;;;;;;2.17;1.83;;;20.60;84.10;;;;;;5025136;28;20525;-58
2021/05/29 10:56:17;;;;;;;1.90;1.50;;;20.60;81.50;;;;;;5034601;28;20430;-60
2021/05/29 10:59:09;;;;;;;3.10;1.83;;;20.40;80.80;;;;;;5034376;28;20236;-56
2021/05/29 11:01:36;;;;;;;4.20;2.00;;;20.90;80.60;;;;;;5033880;28;20569;-56
2021/05/29 11:06:55;;;;;;;1.93;1.20;;;21.00;79.20;;;;;;5034830;28;20795;-59
2021/05/29 11:09:24;;;;;;;2.03;1.63;;;21.00;79.10;;;;;;5035312;28;20487;-55
2021/05/29 11:11:51;;;;;;;1.40;1.30;;;20.90;78.20;;;;;;5034093;28;20407;-58
2021/05/29 11:14:22;;;;;;;4.03;1.87;;;20.80;78.40;;;;;;5034715;28;20414;-59
2021/05/29 11:16:54;;;;;;;1.60;1.50;;;21.10;79.40;;;;;;5034366;28;20418;-57
2021/05/29 11:19:33;;;;;;;3.43;1.53;;;21.20;78.60;;;;;;5033952;28;20402;-58
2021/05/29 11:22:06;;;;;;;2.43;1.43;;;21.30;77.10;;;;;;5034419;28;20436;-55
2021/05/29 11:24:33;;;;;;;1.37;1.17;;;21.60;75.30;;;;;;5034086;28;20407;-59
2021/05/29 11:26:59;;;;;;;1.40;1.30;;;22.20;72.80;;;;;;5033673;28;20457;-60
2021/05/29 11:29:25;;;;;;;2.00;1.40;;;24.30;71.00;;;;;;5034121;28;20500;-60
2021/05/29 11:31:52;;;;;;;1.30;1.20;;;26.60;63.80;;;;;;5033157;28;20984;-60
2021/05/29 11:34:18;;;;;;;1.53;1.30;;;27.80;58.50;;;;;;5033857;28;20651;-60
2021/05/29 11:36:44;;;;;;;2.03;1.20;;;27.30;55.40;;;;;;5032480;28;20429;-58
2021/05/29 11:39:19;;;;;;;1.27;1.13;;;26.90;52.20;;;;;;5032283;28;20175;-59
2021/05/29 11:41:44;;;;;;;1.97;1.00;;;25.90;53.50;;;;;;5041286;28;20427;-59
2021/05/29 11:44:21;;;;;;;2.40;1.33;;;27.20;52.20;;;;;;5053316;28;20945;-58
2021/05/29 11:46:47;;;;;;;0.97;0.87;;;28.20;49.70;;;;;;5053287;28;20198;-60
2021/05/29 11:49:14;;;;;;;1.70;0.93;;;29.60;47.00;;;;;;5053678;28;20405;-57
2021/05/29 11:51:41;;;;;;;1.10;0.90;;;29.70;45.00;;;;;;5034127;28;20558;-59
2021/05/29 11:54:08;;;;;;;2.50;1.37;;;30.00;44.60;;;;;;5033555;28;20402;-59
2021/05/29 11:56:35;;;;;;;1.93;1.00;;;28.90;45.70;;;;;;5032145;28;20437;-59
2021/05/29 11:59:05;;;;;;;1.70;1.20;;;28.00;44.70;;;;;;5032048;28;20422;-59
2021/05/29 12:01:43;;;;;;;2.10;1.40;;;26.60;46.50;;;;;;5033537;28;20402;-59
2021/05/29 12:04:10;;;;;;;1.03;0.90;;;26.80;47.40;;;;;;5033439;28;20420;-60
2021/05/29 12:06:43;;;;;;;3.63;1.10;;;26.60;46.30;;;;;;5033454;28;20873;-59
2021/05/29 12:09:21;;;;;;;1.10;0.70;;;26.60;45.00;;;;;;5031541;28;20489;-60
2021/05/29 12:11:52;;;;;;;1.40;0.97;;;26.60;46.30;;;;;;5033249;28;20405;-61
2021/05/29 12:14:17;;;;;;;1.13;1.00;;;28.20;43.20;;;;;;5035929;28;20425;-59
2021/05/29 12:16:56;;;;;;;1.03;0.90;;;27.40;43.10;;;;;;5037632;28;20418;-59
2021/05/29 12:19:40;;;;;;;2.40;0.93;;;28.20;42.60;;;;;;5037227;28;20309;-58
2021/05/29 12:22:16;;;;;;;1.10;0.70;;;29.40;42.90;;;;;;5037636;28;20394;-60
2021/05/29 12:24:53;;;;;;;1.47;0.93;;;28.90;42.90;;;;;;5037252;28;20790;-57
2021/05/29 12:27:24;;;;;;;0.90;0.80;;;30.40;40.20;;;;;;5036652;28;20818;-60
2021/05/29 12:29:59;;;;;;;1.43;0.80;;;31.10;38.60;;;;;;5038001;28;20910;-60
2021/05/29 12:32:40;;;;;;;2.47;1.00;;;30.00;40.40;;;;;;5036595;28;20841;-59
2021/05/29 12:35:07;;;;;;;0.80;0.80;;;29.90;41.50;;;;;;5037345;28;20402;-60
2021/05/29 12:37:35;;;;;;;1.80;0.80;;;29.80;39.70;;;;;;5037057;28;20426;-60
2021/05/29 12:40:14;;;;;;;2.60;1.43;;;29.40;39.80;;;;;;5037306;28;20485;-58
2021/05/29 12:42:52;;;;;;;1.47;1.03;;;27.30;43.90;;;;;;5037149;28;20404;-60
2021/05/29 12:45:26;;;;;;;0.90;0.80;;;26.20;47.10;;;;;;5037017;28;20497;-59
2021/05/29 12:48:00;;;;;;;1.80;0.90;;;25.90;45.90;;;;;;5036296;28;20465;-59
2021/05/29 12:50:38;;;;;;;1.00;0.90;;;25.30;47.40;;;;;;5037065;28;20528;-58
2021/05/29 12:53:11;;;;;;;2.33;1.00;;;26.30;48.70;;;;;;5036915;28;20398;-56
2021/05/29 12:55:38;;;;;;;1.00;0.80;;;26.80;45.80;;;;;;5036072;28;20512;-60
2021/05/29 12:58:17;;;;;;;1.00;0.90;;;27.50;44.00;;;;;;5036792;28;20426;-60
2021/05/29 13:01:04;;;;;;;0.90;0.60;;;27.70;43.70;;;;;;5036963;28;20444;-60
2021/05/29 13:11:41;;;;;;;2.27;0.77;;;24.90;48.80;;;;;;5036731;28;20447;-55
2021/05/29 13:14:09;;;;;;;2.23;0.93;;;24.20;49.50;;;;;;5036579;28;20402;-57
2021/05/29 13:16:51;;;;;;;0.87;0.83;;;23.60;49.70;;;;;;5036509;28;20571;-60
2021/05/29 13:19:18;;;;;;;1.53;1.00;;;23.10;49.90;;;;;;5036259;28;20914;-59